createdAt,value
2022-08-06T00:00:57.891Z,1012.13
2022-08-06T00:01:57.883Z,1012.18
2022-08-06T00:02:57.866Z,1012.17
2022-08-06T00:03:57.863Z,1012.22
2022-08-06T00:04:57.962Z,1012.22
2022-08-06T00:05:57.838Z,1012.28
2022-08-06T00:06:57.831Z,1012.27
2022-08-06T00:07:57.814Z,1012.26
2022-08-06T00:08:57.816Z,1012.27
2022-08-06T00:09:57.796Z,1012.26
2022-08-06T00:10:57.778Z,1012.32
2022-08-06T00:11:57.821Z,1012.33
2022-08-06T00:12:57.759Z,1012.27
2022-08-06T00:13:57.751Z,1012.27
2022-08-06T00:14:57.738Z,1012.32
2022-08-06T00:15:57.728Z,1012.28
2022-08-06T00:16:57.717Z,1012.3
2022-08-06T00:17:57.723Z,1012.31
2022-08-06T00:18:57.695Z,1012.35
2022-08-06T00:19:57.699Z,1012.36
2022-08-06T00:20:57.690Z,1012.31
2022-08-06T00:21:57.668Z,1012.39
2022-08-06T00:22:57.656Z,1012.36
2022-08-06T00:23:57.641Z,1012.31
2022-08-06T00:24:57.633Z,1012.23
2022-08-06T00:25:57.631Z,1012.27
2022-08-06T00:26:57.613Z,1012.3
2022-08-06T00:27:58.135Z,1012.31
2022-08-06T00:28:57.582Z,1012.34
2022-08-06T00:29:57.577Z,1012.38
2022-08-06T00:30:57.564Z,1012.42
2022-08-06T00:31:57.551Z,1012.37
2022-08-06T00:32:57.547Z,1012.38
2022-08-06T00:33:57.554Z,1012.41
2022-08-06T00:34:57.516Z,1012.37
2022-08-06T00:35:57.511Z,1012.4
2022-08-06T00:36:57.504Z,1012.4
2022-08-06T00:37:57.605Z,1012.43
2022-08-06T00:38:57.473Z,1012.42
2022-08-06T00:39:57.476Z,1012.44
2022-08-06T00:40:57.469Z,1012.46
2022-08-06T00:41:57.442Z,1012.45
2022-08-06T00:42:57.440Z,1012.49
2022-08-06T00:43:57.419Z,1012.53
2022-08-06T00:44:57.427Z,1012.52
2022-08-06T00:45:57.406Z,1012.57
2022-08-06T00:46:57.402Z,1012.59
2022-08-06T00:47:57.381Z,1012.56
2022-08-06T00:48:57.365Z,1012.59
2022-08-06T00:49:57.354Z,1012.61
2022-08-06T00:50:57.348Z,1012.66
2022-08-06T00:51:57.332Z,1012.61
2022-08-06T00:52:57.325Z,1012.65
2022-08-06T00:53:57.310Z,1012.65
2022-08-06T00:54:57.318Z,1012.71
2022-08-06T00:55:57.296Z,1012.7
2022-08-06T00:56:57.277Z,1012.69
2022-08-06T00:57:57.278Z,1012.72
2022-08-06T00:58:57.258Z,1012.67
2022-08-06T00:59:57.249Z,1012.73
2022-08-06T01:00:57.232Z,1012.7
2022-08-06T01:01:57.229Z,1012.72
2022-08-06T01:02:57.214Z,1012.76
2022-08-06T01:03:57.200Z,1012.79
2022-08-06T01:04:57.192Z,1012.74
2022-08-06T01:05:57.180Z,1012.8
2022-08-06T01:06:57.175Z,1012.79
2022-08-06T01:07:57.158Z,1012.83
2022-08-06T01:08:57.152Z,1012.83
2022-08-06T01:09:57.186Z,1012.78
2022-08-06T01:10:57.122Z,1012.82
2022-08-06T01:11:57.111Z,1012.83
2022-08-06T01:12:57.116Z,1012.84
2022-08-06T01:13:57.117Z,1012.82
2022-08-06T01:14:57.665Z,1012.76
2022-08-06T01:15:57.071Z,1012.88
2022-08-06T01:16:57.061Z,1012.8
2022-08-06T01:17:57.060Z,1012.81
2022-08-06T01:18:57.036Z,1012.84
2022-08-06T01:19:57.028Z,1012.87
2022-08-06T01:20:57.020Z,1012.88
2022-08-06T01:21:57.017Z,1012.93
2022-08-06T01:22:56.991Z,1012.79
2022-08-06T01:23:56.986Z,1012.85
2022-08-06T01:24:57.047Z,1012.86
2022-08-06T01:25:56.957Z,1012.82
2022-08-06T01:26:56.958Z,1012.82
2022-08-06T01:27:56.937Z,1012.84
2022-08-06T01:28:56.931Z,1012.84
2022-08-06T01:29:56.911Z,1012.81
2022-08-06T01:30:56.912Z,1012.83
2022-08-06T01:31:56.937Z,1012.83
2022-08-06T01:32:56.882Z,1012.79
2022-08-06T01:33:56.882Z,1012.82
2022-08-06T01:34:56.915Z,1012.83
2022-08-06T01:35:56.850Z,1012.82
2022-08-06T01:36:56.842Z,1012.77
2022-08-06T01:37:56.834Z,1012.79
2022-08-06T01:38:56.830Z,1012.83
2022-08-06T01:39:56.813Z,1012.84
2022-08-06T01:40:56.809Z,1012.78
2022-08-06T01:41:56.822Z,1012.77
2022-08-06T01:42:56.774Z,1012.81
2022-08-06T01:43:56.785Z,1012.79
2022-08-06T01:44:56.762Z,1012.82
2022-08-06T01:45:56.744Z,1012.82
2022-08-06T01:46:56.740Z,1012.81
2022-08-06T01:47:56.714Z,1012.78
2022-08-06T01:48:56.705Z,1012.82
2022-08-06T01:49:56.703Z,1012.79
2022-08-06T01:50:56.693Z,1012.8
2022-08-06T01:51:56.678Z,1012.79
2022-08-06T01:52:56.674Z,1012.8
2022-08-06T01:53:56.654Z,1012.82
2022-08-06T01:54:56.657Z,1012.81
2022-08-06T01:55:56.641Z,1012.83
2022-08-06T01:56:56.629Z,1012.9
2022-08-06T01:57:56.617Z,1012.87
2022-08-06T01:58:56.619Z,1012.9
2022-08-06T01:59:56.594Z,1012.81
2022-08-06T02:00:56.578Z,1012.87
2022-08-06T02:01:56.574Z,1012.84
2022-08-06T02:02:56.563Z,1012.86
2022-08-06T02:03:56.554Z,1012.9
2022-08-06T02:04:56.548Z,1012.89
2022-08-06T02:05:56.538Z,1012.84
2022-08-06T02:06:56.544Z,1012.84
2022-08-06T02:07:56.540Z,1012.86
2022-08-06T02:08:56.500Z,1012.86
2022-08-06T02:09:56.502Z,1012.83
2022-08-06T02:10:56.489Z,1012.88
2022-08-06T02:11:56.474Z,1012.82
2022-08-06T02:12:56.460Z,1012.82
2022-08-06T02:13:56.450Z,1012.81
2022-08-06T02:14:56.439Z,1012.84
2022-08-06T02:15:56.430Z,1012.8
2022-08-06T02:16:56.419Z,1012.8
2022-08-06T02:17:57.124Z,1012.84
2022-08-06T02:18:56.394Z,1012.84
2022-08-06T02:19:56.396Z,1012.89
2022-08-06T02:20:56.371Z,1012.8
2022-08-06T02:21:56.368Z,1012.82
2022-08-06T02:22:56.353Z,1012.87
2022-08-06T02:23:56.339Z,1012.82
2022-08-06T02:24:56.337Z,1012.89
2022-08-06T02:25:56.321Z,1012.87
2022-08-06T02:26:56.310Z,1012.89
2022-08-06T02:27:56.311Z,1012.87
2022-08-06T02:28:56.292Z,1012.87
2022-08-06T02:29:56.284Z,1012.91
2022-08-06T02:30:56.269Z,1012.91
2022-08-06T02:31:56.285Z,1012.95
2022-08-06T02:32:56.249Z,1013.02
2022-08-06T02:33:56.235Z,1013.06
2022-08-06T02:34:56.228Z,1013.01
2022-08-06T02:35:56.238Z,1012.98
2022-08-06T02:36:56.202Z,1013.07
2022-08-06T02:37:56.191Z,1013.05
2022-08-06T02:38:56.194Z,1012.94
2022-08-06T02:39:56.219Z,1012.93
2022-08-06T02:40:56.162Z,1013.04
2022-08-06T02:41:56.152Z,1013.01
2022-08-06T02:42:56.144Z,1013.07
2022-08-06T02:43:56.140Z,1013.08
2022-08-06T02:44:56.118Z,1013.1
2022-08-06T02:45:56.126Z,1013.12
2022-08-06T02:46:56.103Z,1013.1
2022-08-06T02:47:56.090Z,1013.1
2022-08-06T02:48:56.082Z,1013.09
2022-08-06T02:49:56.067Z,1013.11
2022-08-06T02:50:56.059Z,1013.08
2022-08-06T02:51:56.053Z,1013.18
2022-08-06T02:52:56.033Z,1013.15
2022-08-06T02:53:56.026Z,1013.13
2022-08-06T02:54:56.027Z,1013.13
2022-08-06T02:55:56.008Z,1013.16
2022-08-06T02:56:56.000Z,1013.18
2022-08-06T02:57:55.982Z,1013.17
2022-08-06T02:58:55.975Z,1013.25
2022-08-06T02:59:55.968Z,1013.21
2022-08-06T03:00:55.966Z,1013.18
2022-08-06T03:01:55.939Z,1013.25
2022-08-06T03:02:55.933Z,1013.22
2022-08-06T03:03:55.920Z,1013.22
2022-08-06T03:04:55.926Z,1013.27
2022-08-06T03:05:55.901Z,1013.22
2022-08-06T03:06:55.885Z,1013.23
2022-08-06T03:07:55.879Z,1013.23
2022-08-06T03:08:55.867Z,1013.23
2022-08-06T03:09:55.854Z,1013.25
2022-08-06T03:10:55.848Z,1013.28
2022-08-06T03:11:55.829Z,1013.31
2022-08-06T03:12:55.820Z,1013.32
2022-08-06T03:13:55.810Z,1013.34
2022-08-06T03:14:55.800Z,1013.35
2022-08-06T03:15:55.795Z,1013.29
2022-08-06T03:16:55.782Z,1013.28
2022-08-06T03:17:55.771Z,1013.35
2022-08-06T03:18:55.765Z,1013.38
2022-08-06T03:19:55.754Z,1013.37
2022-08-06T03:20:55.734Z,1013.38
2022-08-06T03:21:55.736Z,1013.32
2022-08-06T03:22:55.717Z,1013.37
2022-08-06T03:23:55.705Z,1013.42
2022-08-06T03:24:55.696Z,1013.4
2022-08-06T03:25:55.680Z,1013.5
2022-08-06T03:26:55.683Z,1013.41
2022-08-06T03:27:55.667Z,1013.41
2022-08-06T03:28:55.653Z,1013.45
2022-08-06T03:29:55.648Z,1013.45
2022-08-06T03:30:55.631Z,1013.46
2022-08-06T03:31:55.621Z,1013.5
2022-08-06T03:32:55.618Z,1013.49
2022-08-06T03:33:55.614Z,1013.46
2022-08-06T03:34:55.595Z,1013.51
2022-08-06T03:35:55.592Z,1013.52
2022-08-06T03:36:55.569Z,1013.48
2022-08-06T03:37:55.565Z,1013.56
2022-08-06T03:38:55.579Z,1013.51
2022-08-06T03:39:55.537Z,1013.54
2022-08-06T03:40:55.536Z,1013.53
2022-08-06T03:41:55.525Z,1013.52
2022-08-06T03:42:55.514Z,1013.53
2022-08-06T03:43:55.504Z,1013.53
2022-08-06T03:44:55.490Z,1013.59
2022-08-06T03:45:55.476Z,1013.56
2022-08-06T03:46:55.472Z,1013.59
2022-08-06T03:47:55.460Z,1013.59
2022-08-06T03:48:55.445Z,1013.6
2022-08-06T03:49:55.435Z,1013.63
2022-08-06T03:50:55.423Z,1013.58
2022-08-06T03:51:55.423Z,1013.6
2022-08-06T03:52:55.406Z,1013.66
2022-08-06T03:53:55.386Z,1013.65
2022-08-06T03:54:55.383Z,1013.67
2022-08-06T03:55:55.385Z,1013.65
2022-08-06T03:56:55.367Z,1013.66
2022-08-06T03:57:55.356Z,1013.65
2022-08-06T03:58:55.335Z,1013.66
2022-08-06T03:59:55.327Z,1013.72
2022-08-06T04:00:55.326Z,1013.69
2022-08-06T04:01:55.332Z,1013.7
2022-08-06T04:02:55.295Z,1013.71
2022-08-06T04:03:55.290Z,1013.78
2022-08-06T04:04:55.281Z,1013.77
2022-08-06T04:05:55.261Z,1013.72
2022-08-06T04:06:55.253Z,1013.81
2022-08-06T04:07:55.242Z,1013.75
2022-08-06T04:08:55.235Z,1013.81
2022-08-06T04:09:55.223Z,1013.8
2022-08-06T04:10:55.211Z,1013.78
2022-08-06T04:11:55.216Z,1013.82
2022-08-06T04:12:55.188Z,1013.79
2022-08-06T04:13:55.181Z,1013.84
2022-08-06T04:14:55.170Z,1013.77
2022-08-06T04:15:55.167Z,1013.88
2022-08-06T04:16:55.147Z,1013.89
2022-08-06T04:17:55.134Z,1013.88
2022-08-06T04:18:55.140Z,1013.84
2022-08-06T04:19:55.109Z,1013.87
2022-08-06T04:20:55.096Z,1013.87
2022-08-06T04:21:55.112Z,1013.86
2022-08-06T04:22:55.087Z,1013.88
2022-08-06T04:23:55.066Z,1013.84
2022-08-06T04:24:55.061Z,1013.96
2022-08-06T04:25:55.057Z,1013.95
2022-08-06T04:26:55.036Z,1013.92
2022-08-06T04:27:55.051Z,1014
2022-08-06T04:28:55.016Z,1013.97
2022-08-06T04:29:55.031Z,1013.96
2022-08-06T04:30:54.995Z,1013.96
2022-08-06T04:31:54.979Z,1014
2022-08-06T04:32:54.999Z,1013.97
2022-08-06T04:33:54.958Z,1014.03
2022-08-06T04:34:54.962Z,1014.02
2022-08-06T04:35:54.946Z,1014.11
2022-08-06T04:36:54.928Z,1014
2022-08-06T04:37:54.918Z,1014.07
2022-08-06T04:38:54.909Z,1014.03
2022-08-06T04:39:54.894Z,1014.09
2022-08-06T04:40:54.889Z,1014.08
2022-08-06T04:41:54.881Z,1014.1
2022-08-06T04:42:54.865Z,1014.11
2022-08-06T04:43:54.861Z,1014.13
2022-08-06T04:44:54.845Z,1014.17
2022-08-06T04:45:54.834Z,1014.15
2022-08-06T04:46:54.823Z,1014.19
2022-08-06T04:47:54.834Z,1014.22
2022-08-06T04:48:54.801Z,1014.23
2022-08-06T04:49:54.787Z,1014.23
2022-08-06T04:50:54.777Z,1014.26
2022-08-06T04:51:54.769Z,1014.31
2022-08-06T04:52:54.769Z,1014.33
2022-08-06T04:53:54.748Z,1014.25
2022-08-06T04:54:54.740Z,1014.28
2022-08-06T04:55:54.745Z,1014.26
2022-08-06T04:56:54.711Z,1014.23
2022-08-06T04:57:54.709Z,1014.28
2022-08-06T04:58:54.693Z,1014.33
2022-08-06T04:59:54.687Z,1014.32
2022-08-06T05:00:54.687Z,1014.33
2022-08-06T05:01:54.660Z,1014.38
2022-08-06T05:02:54.641Z,1014.43
2022-08-06T05:03:54.647Z,1014.39
2022-08-06T05:04:54.629Z,1014.43
2022-08-06T05:05:54.619Z,1014.44
2022-08-06T05:06:54.612Z,1014.49
2022-08-06T05:07:54.586Z,1014.42
2022-08-06T05:08:54.581Z,1014.44
2022-08-06T05:09:54.593Z,1014.43
2022-08-06T05:10:54.604Z,1014.47
2022-08-06T05:11:54.550Z,1014.48
2022-08-06T05:12:54.546Z,1014.46
2022-08-06T05:13:54.532Z,1014.43
2022-08-06T05:14:54.518Z,1014.43
2022-08-06T05:15:54.507Z,1014.41
2022-08-06T05:16:54.492Z,1014.42
2022-08-06T05:17:54.482Z,1014.43
2022-08-06T05:18:54.492Z,1014.48
2022-08-06T05:19:54.471Z,1014.47
2022-08-06T05:20:54.453Z,1014.47
2022-08-06T05:21:54.435Z,1014.53
2022-08-06T05:22:54.438Z,1014.56
2022-08-06T05:23:54.423Z,1014.6
2022-08-06T05:24:54.405Z,1014.56
2022-08-06T05:25:54.400Z,1014.62
2022-08-06T05:26:54.395Z,1014.64
2022-08-06T05:27:54.402Z,1014.59
2022-08-06T05:28:54.368Z,1014.65
2022-08-06T05:29:54.359Z,1014.65
2022-08-06T05:30:54.342Z,1014.67
2022-08-06T05:31:54.336Z,1014.72
2022-08-06T05:32:54.321Z,1014.67
2022-08-06T05:33:54.327Z,1014.69
2022-08-06T05:34:54.304Z,1014.71
2022-08-06T05:35:54.297Z,1014.73
2022-08-06T05:36:54.283Z,1014.66
2022-08-06T05:37:54.271Z,1014.65
2022-08-06T05:38:54.257Z,1014.64
2022-08-06T05:39:54.245Z,1014.67
2022-08-06T05:40:54.230Z,1014.7
2022-08-06T05:41:54.237Z,1014.72
2022-08-06T05:42:54.212Z,1014.72
2022-08-06T05:43:54.209Z,1014.69
2022-08-06T05:44:54.214Z,1014.68
2022-08-06T05:45:54.190Z,1014.69
2022-08-06T05:46:54.185Z,1014.71
2022-08-06T05:47:54.161Z,1014.76
2022-08-06T05:48:54.149Z,1014.7
2022-08-06T05:49:54.150Z,1014.74
2022-08-06T05:50:55.125Z,1014.77
2022-08-06T05:51:54.121Z,1014.76
2022-08-06T05:52:54.114Z,1014.78
2022-08-06T05:53:54.108Z,1014.67
2022-08-06T05:54:54.093Z,1014.71
2022-08-06T05:55:54.082Z,1014.68
2022-08-06T05:56:54.083Z,1014.68
2022-08-06T05:57:54.053Z,1014.71
2022-08-06T05:58:54.052Z,1014.67
2022-08-06T05:59:54.043Z,1014.7
2022-08-06T06:00:54.044Z,1014.74
2022-08-06T06:01:54.050Z,1014.77
2022-08-06T06:02:54.001Z,1014.76
2022-08-06T06:03:54.019Z,1014.82
2022-08-06T06:04:53.983Z,1014.76
2022-08-06T06:05:53.965Z,1014.78
2022-08-06T06:06:53.965Z,1014.8
2022-08-06T06:07:53.954Z,1014.82
2022-08-06T06:08:53.938Z,1014.83
2022-08-06T06:09:53.933Z,1014.79
2022-08-06T06:10:53.933Z,1014.82
2022-08-06T06:11:53.913Z,1014.8
2022-08-06T06:12:53.945Z,1014.86
2022-08-06T06:13:53.929Z,1014.8
2022-08-06T06:14:53.869Z,1014.75
2022-08-06T06:15:53.877Z,1014.82
2022-08-06T06:16:53.857Z,1014.84
2022-08-06T06:17:53.857Z,1014.82
2022-08-06T06:18:53.826Z,1014.84
2022-08-06T06:19:53.817Z,1014.81
2022-08-06T06:20:53.812Z,1014.79
2022-08-06T06:21:53.806Z,1014.8
2022-08-06T06:22:53.805Z,1014.8
2022-08-06T06:23:53.783Z,1014.85
2022-08-06T06:24:53.767Z,1014.82
2022-08-06T06:25:53.756Z,1014.87
2022-08-06T06:26:53.745Z,1014.86
2022-08-06T06:27:53.749Z,1014.85
2022-08-06T06:28:53.724Z,1014.86
2022-08-06T06:29:53.713Z,1014.92
2022-08-06T06:30:53.705Z,1014.92
2022-08-06T06:31:53.688Z,1014.97
2022-08-06T06:32:53.691Z,1014.96
2022-08-06T06:33:53.707Z,1014.86
2022-08-06T06:34:53.656Z,1014.89
2022-08-06T06:35:53.660Z,1014.89
2022-08-06T06:36:53.635Z,1014.89
2022-08-06T06:37:53.627Z,1014.95
2022-08-06T06:38:53.614Z,1014.94
2022-08-06T06:39:53.612Z,1014.88
2022-08-06T06:40:53.591Z,1014.91
2022-08-06T06:41:53.587Z,1014.93
2022-08-06T06:42:53.575Z,1014.9
2022-08-06T06:43:53.559Z,1014.91
2022-08-06T06:44:53.556Z,1014.88
2022-08-06T06:45:53.568Z,1014.89
2022-08-06T06:46:53.523Z,1014.89
2022-08-06T06:47:53.516Z,1014.92
2022-08-06T06:48:53.507Z,1014.9
2022-08-06T06:49:53.493Z,1014.89
2022-08-06T06:50:53.486Z,1014.89
2022-08-06T06:51:53.473Z,1014.86
2022-08-06T06:52:53.467Z,1014.94
2022-08-06T06:53:53.451Z,1014.9
2022-08-06T06:54:53.443Z,1014.98
2022-08-06T06:55:53.428Z,1015.01
2022-08-06T06:56:53.419Z,1014.99
2022-08-06T06:57:53.404Z,1014.96
2022-08-06T06:58:53.400Z,1015.03
2022-08-06T06:59:53.379Z,1014.98
2022-08-06T07:00:53.386Z,1014.97
2022-08-06T07:01:53.368Z,1015.02
2022-08-06T07:02:53.393Z,1015
2022-08-06T07:03:53.355Z,1015.04
2022-08-06T07:04:53.327Z,1015.03
2022-08-06T07:05:53.317Z,1015.09
2022-08-06T07:06:53.300Z,1015.1
2022-08-06T07:07:53.293Z,1015.08
2022-08-06T07:08:53.281Z,1015.02
2022-08-06T07:09:53.274Z,1015.11
2022-08-06T07:10:53.264Z,1015.1
2022-08-06T07:11:53.251Z,1015.14
2022-08-06T07:12:53.235Z,1015.17
2022-08-06T07:13:53.223Z,1015.1
2022-08-06T07:14:53.217Z,1015.09
2022-08-06T07:15:53.205Z,1015.13
2022-08-06T07:16:54.119Z,1015.11
2022-08-06T07:17:53.178Z,1015.1
2022-08-06T07:18:53.181Z,1015.16
2022-08-06T07:19:53.169Z,1015.13
2022-08-06T07:20:53.155Z,1015.14
2022-08-06T07:21:53.146Z,1015.15
2022-08-06T07:22:53.137Z,1015.14
2022-08-06T07:23:53.121Z,1015.14
2022-08-06T07:24:53.108Z,1015.17
2022-08-06T07:25:53.104Z,1015.16
2022-08-06T07:26:53.092Z,1015.14
2022-08-06T07:27:53.081Z,1015.17
2022-08-06T07:28:53.068Z,1015.23
2022-08-06T07:29:53.053Z,1015.18
2022-08-06T07:30:53.044Z,1015.17
2022-08-06T07:31:53.081Z,1015.17
2022-08-06T07:32:53.018Z,1015.19
2022-08-06T07:33:53.003Z,1015.21
2022-08-06T07:34:53.005Z,1015.24
2022-08-06T07:35:52.989Z,1015.2
2022-08-06T07:36:53.010Z,1015.23
2022-08-06T07:37:52.965Z,1015.28
2022-08-06T07:38:53.639Z,1015.33
2022-08-06T07:39:52.942Z,1015.28
2022-08-06T07:40:52.944Z,1015.35
2022-08-06T07:41:52.923Z,1015.33
2022-08-06T07:42:52.926Z,1015.26
2022-08-06T07:43:52.938Z,1015.26
2022-08-06T07:44:52.887Z,1015.23
2022-08-06T07:45:52.889Z,1015.23
2022-08-06T07:46:52.872Z,1015.21
2022-08-06T07:47:53.021Z,1015.22
2022-08-06T07:48:52.875Z,1015.22
2022-08-06T07:49:52.854Z,1015.25
2022-08-06T07:50:52.828Z,1015.27
2022-08-06T07:51:52.834Z,1015.28
2022-08-06T07:52:52.798Z,1015.32
2022-08-06T07:53:52.791Z,1015.27
2022-08-06T07:54:52.799Z,1015.27
2022-08-06T07:55:52.789Z,1015.32
2022-08-06T07:56:52.766Z,1015.28
2022-08-06T07:57:52.750Z,1015.3
2022-08-06T07:58:52.736Z,1015.27
2022-08-06T07:59:52.731Z,1015.32
2022-08-06T08:00:52.719Z,1015.35
2022-08-06T08:01:52.707Z,1015.36
2022-08-06T08:02:52.701Z,1015.34
2022-08-06T08:03:52.688Z,1015.32
2022-08-06T08:04:52.677Z,1015.38
2022-08-06T08:05:52.681Z,1015.3
2022-08-06T08:06:52.659Z,1015.32
2022-08-06T08:07:52.646Z,1015.35
2022-08-06T08:08:52.632Z,1015.32
2022-08-06T08:09:52.621Z,1015.32
2022-08-06T08:10:52.610Z,1015.34
2022-08-06T08:11:52.616Z,1015.3
2022-08-06T08:12:52.608Z,1015.34
2022-08-06T08:13:52.574Z,1015.33
2022-08-06T08:14:52.571Z,1015.33
2022-08-06T08:15:52.568Z,1015.3
2022-08-06T08:16:52.571Z,1015.31
2022-08-06T08:17:52.539Z,1015.32
2022-08-06T08:18:52.540Z,1015.4
2022-08-06T08:19:52.517Z,1015.33
2022-08-06T08:20:52.522Z,1015.41
2022-08-06T08:21:52.493Z,1015.34
2022-08-06T08:22:52.539Z,1015.33
2022-08-06T08:23:52.470Z,1015.31
2022-08-06T08:24:52.459Z,1015.4
2022-08-06T08:25:52.516Z,1015.4
2022-08-06T08:26:52.449Z,1015.34
2022-08-06T08:27:52.429Z,1015.43
2022-08-06T08:28:52.423Z,1015.36
2022-08-06T08:29:52.410Z,1015.39
2022-08-06T08:30:52.399Z,1015.45
2022-08-06T08:31:52.468Z,1015.44
2022-08-06T08:32:52.376Z,1015.43
2022-08-06T08:33:52.383Z,1015.51
2022-08-06T08:34:52.386Z,1015.44
2022-08-06T08:35:52.352Z,1015.42
2022-08-06T08:36:52.343Z,1015.41
2022-08-06T08:37:52.318Z,1015.37
2022-08-06T08:38:52.313Z,1015.39
2022-08-06T08:39:52.312Z,1015.44
2022-08-06T08:40:52.336Z,1015.43
2022-08-06T08:41:52.298Z,1015.37
2022-08-06T08:42:52.266Z,1015.44
2022-08-06T08:43:52.272Z,1015.43
2022-08-06T08:44:52.248Z,1015.44
2022-08-06T08:45:52.235Z,1015.43
2022-08-06T08:46:52.231Z,1015.47
2022-08-06T08:47:52.229Z,1015.43
2022-08-06T08:48:52.220Z,1015.4
2022-08-06T08:49:52.197Z,1015.37
2022-08-06T08:50:52.188Z,1015.34
2022-08-06T08:51:52.174Z,1015.32
2022-08-06T08:52:52.167Z,1015.33
2022-08-06T08:53:52.166Z,1015.4
2022-08-06T08:54:52.140Z,1015.41
2022-08-06T08:55:52.125Z,1015.35
2022-08-06T08:56:52.132Z,1015.39
2022-08-06T08:57:52.112Z,1015.38
2022-08-06T08:58:52.093Z,1015.43
2022-08-06T08:59:52.089Z,1015.44
2022-08-06T09:00:52.077Z,1015.39
2022-08-06T09:01:52.066Z,1015.36
2022-08-06T09:02:52.052Z,1015.38
2022-08-06T09:03:52.039Z,1015.36
2022-08-06T09:04:52.034Z,1015.34
2022-08-06T09:05:52.023Z,1015.35
2022-08-06T09:06:52.019Z,1015.37
2022-08-06T09:07:52.002Z,1015.42
2022-08-06T09:08:51.999Z,1015.39
2022-08-06T09:09:52.043Z,1015.41
2022-08-06T09:10:51.969Z,1015.41
2022-08-06T09:11:51.955Z,1015.4
2022-08-06T09:12:52.264Z,1015.38
2022-08-06T09:13:51.933Z,1015.37
2022-08-06T09:14:51.925Z,1015.38
2022-08-06T09:15:51.961Z,1015.31
2022-08-06T09:16:51.929Z,1015.34
2022-08-06T09:17:51.903Z,1015.38
2022-08-06T09:18:51.893Z,1015.43
2022-08-06T09:19:51.877Z,1015.33
2022-08-06T09:20:51.858Z,1015.29
2022-08-06T09:21:51.849Z,1015.37
2022-08-06T09:22:51.858Z,1015.33
2022-08-06T09:23:52.638Z,1015.35
2022-08-06T09:24:51.815Z,1015.45
2022-08-06T09:25:51.805Z,1015.31
2022-08-06T09:26:51.792Z,1015.34
2022-08-06T09:27:51.782Z,1015.4
2022-08-06T09:28:51.776Z,1015.43
2022-08-06T09:29:51.763Z,1015.45
2022-08-06T09:30:51.753Z,1015.41
2022-08-06T09:31:51.753Z,1015.47
2022-08-06T09:32:51.732Z,1015.47
2022-08-06T09:33:51.736Z,1015.42
2022-08-06T09:34:51.704Z,1015.45
2022-08-06T09:35:51.700Z,1015.43
2022-08-06T09:36:51.689Z,1015.48
2022-08-06T09:37:51.713Z,1015.48
2022-08-06T09:38:51.664Z,1015.53
2022-08-06T09:39:51.657Z,1015.49
2022-08-06T09:40:51.644Z,1015.47
2022-08-06T09:41:51.680Z,1015.43
2022-08-06T09:42:51.625Z,1015.49
2022-08-06T09:43:51.616Z,1015.46
2022-08-06T09:44:51.627Z,1015.47
2022-08-06T09:45:51.592Z,1015.5
2022-08-06T09:46:51.601Z,1015.48
2022-08-06T09:47:51.569Z,1015.47
2022-08-06T09:48:51.587Z,1015.4
2022-08-06T09:49:51.557Z,1015.34
2022-08-06T09:50:51.541Z,1015.39
2022-08-06T09:51:51.534Z,1015.39
2022-08-06T09:52:51.517Z,1015.42
2022-08-06T09:53:51.533Z,1015.41
2022-08-06T09:54:51.504Z,1015.45
2022-08-06T09:55:51.506Z,1015.44
2022-08-06T09:56:51.478Z,1015.51
2022-08-06T09:57:51.533Z,1015.48
2022-08-06T09:58:51.456Z,1015.49
2022-08-06T09:59:51.452Z,1015.48
2022-08-06T10:00:51.446Z,1015.43
2022-08-06T10:01:51.446Z,1015.47
2022-08-06T10:02:51.422Z,1015.4
2022-08-06T10:03:51.401Z,1015.41
2022-08-06T10:04:51.392Z,1015.37
2022-08-06T10:05:51.381Z,1015.48
2022-08-06T10:06:51.369Z,1015.45
2022-08-06T10:07:51.376Z,1015.47
2022-08-06T10:08:51.353Z,1015.39
2022-08-06T10:09:51.335Z,1015.32
2022-08-06T10:10:51.325Z,1015.41
2022-08-06T10:11:51.315Z,1015.41
2022-08-06T10:12:51.322Z,1015.37
2022-08-06T10:13:51.296Z,1015.46
2022-08-06T10:14:51.292Z,1015.47
2022-08-06T10:15:51.306Z,1015.49
2022-08-06T10:16:52.266Z,1015.57
2022-08-06T10:17:51.253Z,1015.56
2022-08-06T10:18:51.344Z,1015.54
2022-08-06T10:19:51.239Z,1015.58
2022-08-06T10:20:51.220Z,1015.51
2022-08-06T10:21:51.212Z,1015.56
2022-08-06T10:22:51.198Z,1015.5
2022-08-06T10:23:51.215Z,1015.53
2022-08-06T10:24:51.179Z,1015.5
2022-08-06T10:25:51.193Z,1015.55
2022-08-06T10:26:51.160Z,1015.56
2022-08-06T10:27:51.169Z,1015.57
2022-08-06T10:28:51.135Z,1015.6
2022-08-06T10:29:51.126Z,1015.52
2022-08-06T10:30:51.137Z,1015.57
2022-08-06T10:31:51.096Z,1015.51
2022-08-06T10:32:51.098Z,1015.53
2022-08-06T10:33:51.081Z,1015.46
2022-08-06T10:34:51.088Z,1015.49
2022-08-06T10:35:51.066Z,1015.58
2022-08-06T10:36:51.057Z,1015.53
2022-08-06T10:37:51.050Z,1015.41
2022-08-06T10:38:51.030Z,1015.51
2022-08-06T10:39:51.042Z,1015.49
2022-08-06T10:40:51.015Z,1015.49
2022-08-06T10:41:50.995Z,1015.54
2022-08-06T10:42:50.993Z,1015.58
2022-08-06T10:43:50.985Z,1015.52
2022-08-06T10:44:51.009Z,1015.52
2022-08-06T10:45:50.952Z,1015.53
2022-08-06T10:46:50.945Z,1015.51
2022-08-06T10:47:50.935Z,1015.44
2022-08-06T10:48:50.932Z,1015.47
2022-08-06T10:49:50.935Z,1015.46
2022-08-06T10:50:50.902Z,1015.51
2022-08-06T10:51:51.641Z,1015.42
2022-08-06T10:52:50.884Z,1015.42
2022-08-06T10:53:50.881Z,1015.48
2022-08-06T10:54:50.897Z,1015.47
2022-08-06T10:55:50.863Z,1015.49
2022-08-06T10:56:50.837Z,1015.5
2022-08-06T10:57:50.834Z,1015.43
2022-08-06T10:58:50.828Z,1015.43
2022-08-06T10:59:50.812Z,1015.46
2022-08-06T11:00:50.792Z,1015.47
2022-08-06T11:01:50.789Z,1015.46
2022-08-06T11:02:50.785Z,1015.54
2022-08-06T11:03:50.769Z,1015.54
2022-08-06T11:04:50.758Z,1015.56
2022-08-06T11:05:50.756Z,1015.46
2022-08-06T11:06:50.777Z,1015.43
2022-08-06T11:07:50.730Z,1015.41
2022-08-06T11:08:50.724Z,1015.44
2022-08-06T11:09:50.702Z,1015.41
2022-08-06T11:10:50.698Z,1015.39
2022-08-06T11:11:50.716Z,1015.42
2022-08-06T11:12:50.676Z,1015.29
2022-08-06T11:13:50.694Z,1015.37
2022-08-06T11:14:50.666Z,1015.38
2022-08-06T11:15:50.643Z,1015.3
2022-08-06T11:16:50.647Z,1015.28
2022-08-06T11:17:50.624Z,1015.26
2022-08-06T11:18:50.640Z,1015.31
2022-08-06T11:19:50.596Z,1015.37
2022-08-06T11:20:50.591Z,1015.29
2022-08-06T11:21:50.594Z,1015.33
2022-08-06T11:22:50.565Z,1015.34
2022-08-06T11:23:50.552Z,1015.3
2022-08-06T11:24:50.544Z,1015.34
2022-08-06T11:25:50.545Z,1015.33
2022-08-06T11:26:50.529Z,1015.31
2022-08-06T11:27:50.519Z,1015.43
2022-08-06T11:28:50.501Z,1015.51
2022-08-06T11:29:50.501Z,1015.42
2022-08-06T11:30:50.483Z,1015.42
2022-08-06T11:31:50.521Z,1015.43
2022-08-06T11:32:50.460Z,1015.37
2022-08-06T11:33:50.465Z,1015.35
2022-08-06T11:34:50.446Z,1015.35
2022-08-06T11:35:50.428Z,1015.28
2022-08-06T11:36:50.420Z,1015.31
2022-08-06T11:37:50.415Z,1015.33
2022-08-06T11:38:50.412Z,1015.31
2022-08-06T11:39:50.388Z,1015.29
2022-08-06T11:40:50.376Z,1015.32
2022-08-06T11:41:50.371Z,1015.3
2022-08-06T11:42:50.377Z,1015.28
2022-08-06T11:43:50.407Z,1015.26
2022-08-06T11:44:50.358Z,1015.29
2022-08-06T11:45:50.330Z,1015.29
2022-08-06T11:46:50.348Z,1015.31
2022-08-06T11:47:50.304Z,1015.3
2022-08-06T11:48:50.306Z,1015.27
2022-08-06T11:49:50.294Z,1015.21
2022-08-06T11:50:50.284Z,1015.28
2022-08-06T11:51:50.272Z,1015.23
2022-08-06T11:52:50.254Z,1015.31
2022-08-06T11:53:50.243Z,1015.34
2022-08-06T11:54:50.233Z,1015.31
2022-08-06T11:55:50.223Z,1015.31
2022-08-06T11:56:50.223Z,1015.32
2022-08-06T11:57:50.208Z,1015.47
2022-08-06T11:58:50.199Z,1015.37
2022-08-06T11:59:50.183Z,1015.44
2022-08-06T12:00:50.203Z,1015.35
2022-08-06T12:01:50.156Z,1015.39
2022-08-06T12:02:50.148Z,1015.44
2022-08-06T12:03:50.136Z,1015.48
2022-08-06T12:04:50.150Z,1015.4
2022-08-06T12:05:50.117Z,1015.41
2022-08-06T12:06:50.128Z,1015.46
2022-08-06T12:07:50.110Z,1015.36
2022-08-06T12:08:50.119Z,1015.39